Hlavní strana
METAR-TAF:

METAR-TAF

Letiště :

Stavropol, Rusko

zeměpisná šířka: 45-20N, zeměpisná délka: 042-00E, výška: 453 m

Aktuální stav počasí

Zpráva byla vytvořena před 13 minutami, v 17:00 UTC
Západní vítr 10 kt
Teplota -7°C
Vlhkost vzduchu 86%
Tlak 1013 hPa
Viditelnost 10 km a více
Žádná oblačnost pod 1500 m, nevyskytují se cumulonimby.

METAR: URMT 181700Z 27005MPS CAVOK M07/M09 Q1013 R25/450145 NOSIG RMK QFE721

Čas: 21:13 (17:13 UTC)

Předpověď počasí

Zpráva byla vytvořena před 3 hodinami a 13 minutami, v 14:00 UTC
Předpověď platná od 18 v 15 UTC do 18 v 24 UTC
Západní vítr 12 kt s nárazy do 23 kt
Viditelnost 10 km a více
Oblačno až skoro zataženo ve výšce 1100 ft
Oblačno až skoro zataženo ve výšce 2000 ft
Dočasný
od 18 v 15 UTC do 18 v 24 UTC
Viditelnost: 3100 m
Oblačno až skoro zataženo ve výšce 500 ft
Oblačno až skoro zataženo ve výšce 2000 ft
slabé sněžení, kouřmo

TAF: URMT 181400Z 1815/1824 28006G12MPS 9999 BKN011 BKN020 TEMPO 1815/1824 3100 -SN BR BKN005 BKN020

Stav a předpovědi počasí z více než 4 000 letišť (zprávy METAR a TAF).

Červené a žluté tečky na mapě představují dostupné meteorologické stanice.

Když kurzor umístíte na tečku, zobrazí se název stanice.

Pak kliknutím zobrazíte stav a předpověď počasí.

Chcete-li změnit mapu, kliknutím na zelené tlačítko se znaménkem +mapu přiblížíte, kliknutím na zelené tlačítko se znaménkem – mapu oddálíte a kliknutím na zelené šipky přejdete na sousední mapy.


METAR-TAF: